Time;durP1;ratioP1;P1;durP2;ratioP2;P2;SDS_P1;SDS_P2;PMS_P1;PMS_P2;Temp;Humidity;BMP_temperature;BMP_pressure;BME280_temperature;BME280_humidity;BME280_pressure;Samples;Min_cycle;Max_cycle;Signal;HPM_P1;HPM_P2
2022/07/14 00:01:20;;;;;;;2.50;2.20;;;24.30;92.80;;;25.28;71.19;98408.59;4929825;29;20477;-78
2022/07/14 00:03:51;;;;;;;5.10;2.60;;;24.30;92.70;;;25.24;71.76;98412.88;4927435;29;20462;-77
2022/07/14 00:06:21;;;;;;;2.10;1.90;;;24.10;92.90;;;25.15;72.12;98412.66;4930347;29;20527;-78
2022/07/14 00:08:52;;;;;;;2.97;2.20;;;24.10;93.00;;;25.00;73.25;98407.31;4928382;29;20458;-78
2022/07/14 00:11:22;;;;;;;3.50;2.07;;;24.00;93.50;;;24.97;73.87;98406.00;4929792;29;20478;-78
2022/07/14 00:13:53;;;;;;;3.63;2.63;;;23.90;93.50;;;24.95;73.17;98405.47;4927493;29;20493;-78
2022/07/14 00:16:23;;;;;;;5.03;2.63;;;23.90;93.20;;;24.89;73.38;98405.75;4928673;29;20474;-77
2022/07/14 00:18:54;;;;;;;8.90;2.70;;;23.80;93.10;;;24.84;73.17;98403.09;4927616;29;21021;-78
2022/07/14 00:21:25;;;;;;;4.03;2.07;;;23.80;93.00;;;24.79;73.57;98400.38;4928352;29;21154;-78
2022/07/14 00:23:54;;;;;;;4.70;2.37;;;23.80;93.10;;;24.69;74.24;98397.72;4927647;29;20589;-78
2022/07/14 00:26:23;;;;;;;4.10;2.50;;;23.80;93.10;;;24.58;75.03;98399.59;4928121;29;20565;-78
2022/07/14 00:28:53;;;;;;;4.73;2.20;;;23.70;93.50;;;24.52;75.26;98401.47;4928303;29;20525;-78
2022/07/14 00:31:23;;;;;;;4.30;2.20;;;23.60;93.40;;;24.41;76.98;98405.22;4928775;29;20458;-78
2022/07/14 00:33:54;;;;;;;5.10;2.60;;;23.40;93.70;;;24.33;77.55;98395.03;4929139;29;20495;-78
2022/07/14 00:36:26;;;;;;;3.03;2.40;;;23.40;93.90;;;24.29;77.25;98394.00;4928344;29;20467;-78
2022/07/14 00:38:56;;;;;;;4.20;2.70;;;23.30;93.70;;;24.22;77.67;98398.00;4929678;29;20778;-78
2022/07/14 00:41:25;;;;;;;8.57;2.70;;;23.30;93.90;;;24.13;78.07;98392.38;4931661;29;20827;-78
2022/07/14 00:43:54;;;;;;;9.50;3.10;;;23.20;93.90;;;24.10;78.30;98384.03;4931543;29;20462;-78
2022/07/14 00:46:24;;;;;;;2.73;2.07;;;23.10;94.20;;;24.04;79.19;98388.59;4929531;29;21235;-78
2022/07/14 00:48:54;;;;;;;3.53;2.40;;;23.00;94.20;;;23.97;79.73;98380.03;4929241;29;20993;-78
2022/07/14 00:51:24;;;;;;;7.73;2.77;;;23.00;94.20;;;23.96;80.13;98381.88;4931215;29;20463;-78
2022/07/14 00:53:55;;;;;;;5.53;2.60;;;22.90;94.50;;;23.91;80.12;98381.09;4929956;29;20473;-78
2022/07/14 00:56:24;;;;;;;2.83;2.23;;;22.80;94.50;;;23.87;80.56;98377.34;4927127;29;20466;-78
2022/07/14 00:58:54;;;;;;;4.33;3.03;;;22.90;94.50;;;23.85;80.78;98376.78;4929041;29;21041;-78
2022/07/14 01:01:25;;;;;;;3.93;2.47;;;22.70;94.50;;;23.73;81.58;98376.25;4927828;29;20878;-78
2022/07/14 01:03:58;;;;;;;7.03;2.87;;;22.70;94.70;;;23.65;82.72;98372.19;4928408;29;20490;-78
2022/07/14 01:06:29;;;;;;;2.43;2.10;;;22.50;95.30;;;23.62;82.48;98370.06;4925735;29;20492;-79
2022/07/14 01:09:00;;;;;;;2.93;2.40;;;22.50;95.20;;;23.62;82.64;98382.59;4925875;29;20454;-77
2022/07/14 01:11:30;;;;;;;9.73;3.10;;;22.40;95.00;;;23.57;82.73;98377.28;4926464;29;21028;-78
2022/07/14 01:14:02;;;;;;;4.73;2.50;;;22.40;95.40;;;23.55;82.51;98383.66;4927192;29;20904;-77
2022/07/14 01:16:31;;;;;;;5.27;2.77;;;22.40;95.20;;;23.49;82.82;98387.38;4926839;29;20887;-78
2022/07/14 01:19:03;;;;;;;5.03;2.73;;;22.40;95.30;;;23.40;83.93;98383.56;4925728;29;20469;-78
2022/07/14 01:21:34;;;;;;;7.93;2.97;;;22.30;95.30;;;23.38;83.69;98382.22;4925054;29;20482;-78
2022/07/14 01:24:07;;;;;;;4.30;2.80;;;22.30;95.20;;;23.36;84.14;98371.78;4927435;29;20462;-78
2022/07/14 01:26:36;;;;;;;4.20;2.77;;;22.30;95.50;;;23.34;84.22;98371.28;4929963;29;20900;-78
2022/07/14 01:29:06;;;;;;;2.67;2.27;;;22.20;95.40;;;23.32;84.49;98378.75;4926804;29;20472;-78
2022/07/14 01:31:38;;;;;;;4.07;2.67;;;22.20;95.50;;;23.29;84.03;98376.56;4925970;29;20501;-77
2022/07/14 01:34:07;;;;;;;3.77;2.13;;;22.10;95.40;;;23.20;84.91;98378.16;4928929;29;20463;-78
2022/07/14 01:36:38;;;;;;;5.20;3.10;;;22.00;95.70;;;23.16;84.99;98370.91;4926922;29;20886;-78
2022/07/14 01:39:09;;;;;;;5.40;2.37;;;22.10;95.60;;;23.11;85.12;98363.69;4928735;29;20467;-78
2022/07/14 01:41:39;;;;;;;10.10;2.80;;;22.00;95.60;;;23.06;85.59;98355.66;4930156;29;20452;-78
2022/07/14 01:44:10;;;;;;;4.60;2.70;;;22.00;95.80;;;23.01;85.95;98352.97;4924813;29;20530;-77
2022/07/14 01:46:39;;;;;;;6.83;3.20;;;22.00;95.70;;;22.98;85.98;98353.47;4927455;29;20565;-78
2022/07/14 01:49:10;;;;;;;6.10;2.83;;;21.80;95.80;;;22.90;86.83;98351.31;4930352;29;20806;-78
2022/07/14 01:51:40;;;;;;;9.10;2.30;;;21.70;96.20;;;22.86;87.49;98352.88;4929107;29;20983;-78
2022/07/14 01:54:08;;;;;;;3.00;2.27;;;21.80;96.00;;;22.83;87.49;98346.22;4928355;29;20466;-78
2022/07/14 01:56:41;;;;;;;3.83;2.70;;;21.70;96.20;;;22.79;87.50;98338.97;4930989;29;20462;-78
2022/07/14 01:59:10;;;;;;;4.40;2.90;;;21.70;96.10;;;22.70;88.18;98335.97;4927306;29;20479;-78
2022/07/14 02:01:40;;;;;;;3.87;2.17;;;21.60;96.30;;;22.71;88.75;98342.13;4927507;29;20467;-78
2022/07/14 02:04:13;;;;;;;4.40;2.60;;;21.50;96.50;;;22.65;88.90;98341.28;4925849;29;20450;-78
2022/07/14 02:06:47;;;;;;;3.83;2.83;;;21.50;96.40;;;22.60;89.77;98341.22;4926235;29;20577;-77
2022/07/14 02:09:17;;;;;;;6.03;2.63;;;21.40;96.60;;;22.58;90.19;98340.69;4925713;29;20470;-78
2022/07/14 02:14:36;;;;;;;3.00;2.17;;;21.40;96.70;;;22.49;89.77;98358.22;4926919;29;20459;-78
2022/07/14 02:17:05;;;;;;;3.73;2.63;;;21.30;96.70;;;22.43;90.58;98354.72;4927218;29;20498;-78
2022/07/14 02:19:36;;;;;;;6.23;2.63;;;21.30;96.70;;;22.43;90.65;98357.38;4926706;29;20454;-77
2022/07/14 02:22:08;;;;;;;3.20;2.77;;;21.30;96.90;;;22.44;90.96;98355.53;4929770;29;20471;-77
2022/07/14 02:24:38;;;;;;;5.10;2.20;;;21.30;96.80;;;22.34;90.54;98358.91;4928657;29;20823;-77
2022/07/14 02:27:08;;;;;;;3.30;2.50;;;21.30;96.60;;;22.29;91.42;98353.53;4928101;29;20895;-77
2022/07/14 02:29:38;;;;;;;10.10;2.87;;;21.20;96.90;;;22.25;92.17;98351.66;4929160;29;21131;-78
2022/07/14 02:32:08;;;;;;;2.93;2.43;;;21.10;97.10;;;22.20;91.89;98352.41;4929366;29;20965;-78
2022/07/14 02:34:38;;;;;;;6.80;3.07;;;21.10;96.80;;;22.16;92.26;98359.28;4925591;29;20502;-77
2022/07/14 02:37:08;;;;;;;5.47;2.93;;;21.10;96.80;;;22.12;92.11;98354.72;4927561;29;20478;-78
2022/07/14 02:39:37;;;;;;;4.80;2.77;;;21.10;96.90;;;22.07;92.44;98364.25;4925762;29;20548;-78
2022/07/14 02:42:07;;;;;;;4.10;2.23;;;21.00;97.00;;;22.03;93.04;98362.38;4925715;29;20987;-78
2022/07/14 02:44:38;;;;;;;5.57;2.70;;;20.90;97.10;;;21.98;92.96;98362.31;4928004;29;20869;-78
2022/07/14 02:47:08;;;;;;;5.90;2.83;;;20.90;97.30;;;21.92;93.62;98369.47;4925742;29;20493;-78
2022/07/14 02:49:39;;;;;;;3.90;2.60;;;20.90;97.20;;;21.88;94.18;98365.66;4925195;29;20467;-78
2022/07/14 02:52:10;;;;;;;14.80;3.20;;;20.80;97.30;;;21.83;94.04;98351.50;4926536;29;20547;-80
2022/07/14 02:54:40;;;;;;;5.13;2.70;;;20.70;97.40;;;21.80;94.34;98357.31;4928505;29;20470;-78
2022/07/14 02:57:09;;;;;;;4.03;3.50;;;20.70;97.40;;;21.79;95.17;98359.19;4925025;29;20953;-78
2022/07/14 02:59:43;;;;;;;4.23;2.93;;;20.60;97.60;;;21.82;94.84;98357.88;4929194;29;20466;-78
2022/07/14 03:02:12;;;;;;;3.23;2.70;;;20.60;97.60;;;21.82;94.83;98364.00;4931868;29;20518;-78
2022/07/14 03:04:42;;;;;;;4.50;2.73;;;20.60;97.50;;;21.77;94.24;98355.97;4929351;29;20478;-78
2022/07/14 03:07:12;;;;;;;4.50;3.10;;;20.60;97.50;;;21.75;95.06;98354.63;4933481;29;21087;-78
2022/07/14 03:09:41;;;;;;;3.83;3.30;;;20.60;97.50;;;21.73;94.88;98351.41;4928465;29;20485;-83
2022/07/14 03:12:11;;;;;;;3.50;2.67;;;20.60;97.60;;;21.69;94.83;98360.94;4932136;29;20897;-78
2022/07/14 03:14:40;;;;;;;4.30;2.20;;;20.60;97.60;;;21.63;94.94;98365.41;4931375;29;20470;-78
2022/07/14 03:17:10;;;;;;;5.13;2.40;;;20.50;97.50;;;21.58;95.01;98360.84;4931325;29;20454;-78
2022/07/14 03:19:39;;;;;;;5.80;2.40;;;20.50;97.40;;;21.55;95.40;98363.19;4931367;29;20505;-78
2022/07/14 03:22:08;;;;;;;2.47;2.13;;;20.50;97.70;;;21.48;96.27;98360.72;4930068;29;20498;-79
2022/07/14 03:24:38;;;;;;;3.53;2.73;;;20.50;97.60;;;21.48;96.84;98360.72;4932583;29;20948;-78
2022/07/14 03:27:09;;;;;;;10.90;3.27;;;20.40;97.80;;;21.45;96.83;98363.88;4931599;29;20466;-78
2022/07/14 03:29:42;;;;;;;6.80;3.07;;;20.40;97.80;;;21.44;96.88;98353.50;4931323;29;20574;-78
2022/07/14 03:32:12;;;;;;;3.30;2.60;;;20.40;97.90;;;21.42;97.06;98347.59;4933232;29;20459;-78
2022/07/14 03:34:41;;;;;;;4.70;2.90;;;20.30;97.90;;;21.37;97.04;98352.88;4932027;29;20557;-78
2022/07/14 03:37:12;;;;;;;4.43;2.50;;;20.30;97.80;;;21.34;97.46;98345.38;4931467;29;20470;-78
2022/07/14 03:39:43;;;;;;;3.97;2.70;;;20.30;98.00;;;21.35;97.73;98345.13;4931026;29;20478;-78
2022/07/14 03:42:13;;;;;;;5.00;2.83;;;20.20;98.10;;;21.32;97.56;98334.97;4930384;29;20462;-78
2022/07/14 03:44:44;;;;;;;5.80;3.10;;;20.20;97.90;;;21.32;98.38;98324.34;4930841;29;20566;-78
2022/07/14 03:47:15;;;;;;;7.10;2.80;;;20.20;98.20;;;21.33;98.86;98320.63;4933410;29;20957;-83
2022/07/14 03:49:46;;;;;;;5.00;3.10;;;20.20;98.20;;;21.32;98.25;98332.31;4930512;29;20525;-78
2022/07/14 03:52:21;;;;;;;8.87;3.90;;;20.20;98.10;;;21.34;98.48;98332.91;4930966;29;20444;-78
2022/07/14 03:54:52;;;;;;;4.63;2.70;;;20.20;98.10;;;21.31;98.37;98322.72;4930890;29;20533;-78
2022/07/14 03:57:21;;;;;;;4.50;2.70;;;20.20;98.10;;;21.31;98.37;98301.44;4932742;29;20449;-83
2022/07/14 03:59:52;;;;;;;3.80;2.57;;;20.30;97.90;;;21.28;98.71;98317.91;4931531;29;20498;-78
2022/07/14 04:02:22;;;;;;;3.20;2.60;;;20.30;98.20;;;21.27;99.06;98339.44;4930507;29;20467;-77
2022/07/14 04:04:51;;;;;;;5.30;3.50;;;20.20;98.20;;;21.23;99.94;98336.47;4931443;29;20463;-78
2022/07/14 04:07:20;;;;;;;4.20;3.17;;;20.20;98.40;;;21.24;100.00;98329.31;4931542;29;20866;-78
2022/07/14 04:09:52;;;;;;;4.47;3.10;;;20.20;98.30;;;21.22;100.00;98329.53;4928754;29;20927;-78
2022/07/14 04:12:22;;;;;;;17.07;3.37;;;20.30;98.20;;;21.20;100.00;98326.34;4931467;29;21063;-78
2022/07/14 04:14:51;;;;;;;4.13;2.70;;;20.30;98.40;;;21.24;100.00;98332.75;4932261;29;20553;-78
2022/07/14 04:17:20;;;;;;;4.00;2.90;;;20.20;98.60;;;21.24;100.00;98327.44;4932387;29;21048;-77
2022/07/14 04:19:49;;;;;;;4.30;2.77;;;20.20;98.50;;;21.25;100.00;98323.72;4933388;29;20501;-78
2022/07/14 04:22:19;;;;;;;8.20;3.70;;;20.20;98.60;;;21.28;100.00;98309.91;4930449;29;20480;-78
2022/07/14 04:25:12;;;;;;;4.13;2.80;;;20.20;98.80;;;21.30;100.00;98320.31;4932206;29;20469;-77
2022/07/14 04:27:42;;;;;;;3.70;2.50;;;20.20;98.70;;;21.29;100.00;98324.84;4931923;29;20490;-77
2022/07/14 04:30:14;;;;;;;6.63;2.93;;;20.20;98.70;;;21.32;100.00;98324.34;4932711;29;20866;-78
2022/07/14 04:32:44;;;;;;;3.50;2.40;;;20.20;98.90;;;21.35;100.00;98323.84;4932157;29;20941;-77
2022/07/14 04:35:14;;;;;;;7.40;2.87;;;20.20;98.80;;;21.34;100.00;98316.94;4932324;29;20463;-77
2022/07/14 04:37:44;;;;;;;4.40;3.03;;;20.10;98.80;;;21.35;100.00;98317.72;4932751;29;20992;-78
2022/07/14 04:40:16;;;;;;;3.70;2.93;;;20.20;99.00;;;21.36;100.00;98308.69;4933357;29;20443;-77
2022/07/14 04:42:46;;;;;;;3.90;3.00;;;20.20;98.70;;;21.35;100.00;98307.88;4933677;29;20506;-78
2022/07/14 04:45:16;;;;;;;10.47;2.93;;;20.20;98.50;;;21.37;100.00;98320.94;4931723;29;20490;-78
2022/07/14 04:47:47;;;;;;;4.07;2.90;;;20.30;98.60;;;21.39;100.00;98321.47;4934219;29;20459;-77
2022/07/14 04:53:05;;;;;;;5.03;2.97;;;20.30;98.80;;;21.39;100.00;98316.97;4932465;29;20980;-78
2022/07/14 04:55:36;;;;;;;3.30;2.83;;;20.30;98.70;;;21.39;100.00;98319.63;4930990;29;20471;-78
2022/07/14 04:58:05;;;;;;;3.07;2.77;;;20.30;98.60;;;21.39;100.00;98322.28;4932712;29;20455;-77
2022/07/14 05:00:34;;;;;;;8.03;2.50;;;20.30;98.80;;;21.39;100.00;98324.94;4931969;29;20494;-78
2022/07/14 05:03:04;;;;;;;3.27;2.63;;;20.30;98.80;;;21.39;100.00;98319.63;4931225;29;20970;-78
2022/07/14 05:05:34;;;;;;;5.23;2.50;;;20.30;98.80;;;21.38;100.00;98326.00;4931621;29;20480;-78
2022/07/14 05:08:04;;;;;;;2.97;2.67;;;20.20;98.80;;;21.37;100.00;98326.25;4932308;29;20558;-78
2022/07/14 05:10:36;;;;;;;3.50;2.40;;;20.20;99.10;;;21.35;100.00;98323.84;4932917;29;20494;-77
2022/07/14 05:13:05;;;;;;;6.97;2.53;;;20.20;99.10;;;21.36;100.00;98320.13;4931140;29;20471;-77
2022/07/14 05:15:35;;;;;;;8.40;2.53;;;20.20;99.20;;;21.38;100.00;98320.66;4931606;29;20601;-77
2022/07/14 05:18:06;;;;;;;6.27;3.80;;;20.20;99.00;;;21.41;100.00;98322.06;4931359;29;20762;-78
2022/07/14 05:20:36;;;;;;;4.90;3.67;;;20.30;98.80;;;21.43;100.00;98317.28;4931621;29;20459;-78
2022/07/14 05:23:06;;;;;;;8.87;4.00;;;20.30;98.40;;;21.47;99.56;98326.38;4929956;29;20446;-77
2022/07/14 05:25:39;;;;;;;5.50;2.93;;;20.40;98.40;;;21.48;98.75;98323.47;4931686;29;20455;-77
2022/07/14 05:28:09;;;;;;;3.70;2.70;;;20.40;98.20;;;21.50;99.01;98316.03;4931773;29;20465;-78
2022/07/14 05:30:40;;;;;;;3.63;3.13;;;20.40;98.50;;;21.55;99.56;98318.72;4932890;29;20970;-77
2022/07/14 05:33:10;;;;;;;3.17;2.60;;;20.40;98.50;;;21.59;99.24;98303.88;4931449;29;20875;-77
2022/07/14 05:35:41;;;;;;;5.00;3.03;;;20.50;98.50;;;21.63;99.15;98308.69;4930690;29;20466;-78
2022/07/14 05:38:09;;;;;;;4.37;3.03;;;20.50;98.40;;;21.66;97.74;98297.56;4929904;29;21031;-77
2022/07/14 05:40:40;;;;;;;3.80;2.70;;;20.60;98.10;;;21.70;98.30;98301.31;4930357;29;20521;-78
2022/07/14 05:43:08;;;;;;;3.80;2.90;;;20.60;98.20;;;21.71;98.26;98305.56;4931753;29;20459;-78
2022/07/14 05:45:38;;;;;;;7.70;3.03;;;20.60;98.30;;;21.73;99.04;98300.81;4930342;29;20972;-77
2022/07/14 05:48:09;;;;;;;4.13;2.73;;;20.60;98.50;;;21.77;97.60;98302.72;4930866;29;20466;-77
2022/07/14 05:50:39;;;;;;;7.90;3.07;;;20.80;98.10;;;21.80;97.45;98299.53;4930793;29;20652;-77
2022/07/14 05:53:09;;;;;;;4.03;2.87;;;20.70;98.30;;;21.85;96.47;98307.59;4930108;29;20462;-78
2022/07/14 05:55:42;;;;;;;3.23;2.67;;;20.80;97.90;;;21.87;96.57;98299.31;4931995;29;20462;-77
2022/07/14 05:58:11;;;;;;;3.83;2.50;;;20.90;98.00;;;21.91;96.66;98297.78;4931375;29;20527;-77
2022/07/14 06:00:41;;;;;;;3.37;2.30;;;20.90;98.10;;;21.95;96.86;98296.25;4930301;29;20484;-77
2022/07/14 06:03:10;;;;;;;5.43;3.60;;;20.90;98.10;;;21.98;97.30;98295.72;4930521;29;20467;-77
2022/07/14 06:05:40;;;;;;;4.77;2.97;;;20.90;98.30;;;22.00;98.13;98297.09;4928937;29;20530;-77
2022/07/14 06:08:10;;;;;;;11.37;2.87;;;20.90;98.40;;;22.06;97.28;98298.75;4928310;29;20542;-77
2022/07/14 06:10:42;;;;;;;3.20;2.07;;;21.00;98.30;;;22.10;97.92;98288.38;4929423;29;20498;-78
2022/07/14 06:13:11;;;;;;;10.37;3.10;;;21.00;98.30;;;22.18;97.36;98295.88;4930055;29;20482;-77
2022/07/14 06:15:44;;;;;;;7.90;2.93;;;21.10;98.20;;;22.23;96.35;98289.78;4930430;29;20503;-77
2022/07/14 06:18:14;;;;;;;4.93;2.60;;;21.20;97.80;;;22.29;95.78;98292.25;4930062;29;20459;-78
2022/07/14 06:20:44;;;;;;;6.33;3.57;;;21.20;98.10;;;22.38;95.58;98297.91;4930304;29;20970;-77
2022/07/14 06:23:13;;;;;;;5.70;2.87;;;21.40;97.80;;;22.44;94.50;98295.00;4931202;29;20518;-77
2022/07/14 06:25:45;;;;;;;8.60;3.10;;;21.40;97.60;;;22.51;94.50;98306.25;4930413;29;21028;-77
2022/07/14 06:28:15;;;;;;;4.70;2.80;;;21.50;97.70;;;22.55;92.75;98306.53;4929897;29;20478;-78
2022/07/14 06:30:44;;;;;;;8.43;2.93;;;21.50;97.20;;;22.62;92.40;98295.66;4929682;29;20502;-77
2022/07/14 06:33:14;;;;;;;5.17;3.10;;;21.60;97.20;;;22.68;91.76;98294.66;4930111;28;21051;-77
2022/07/14 06:35:45;;;;;;;13.47;2.83;;;21.80;97.10;;;22.72;91.41;98296.53;4929849;29;20473;-77
2022/07/14 06:38:30;;;;;;;4.60;2.67;;;21.80;96.90;;;22.78;91.55;98287.50;4928758;29;20454;-77
2022/07/14 06:41:01;;;;;;;4.43;3.40;;;21.80;97.20;;;22.80;90.36;98292.59;4930477;29;20466;-77
2022/07/14 06:43:33;;;;;;;3.20;2.13;;;21.80;96.70;;;22.84;90.32;98286.44;4927459;29;20471;-77
2022/07/14 06:46:03;;;;;;;3.90;2.93;;;21.90;96.80;;;22.89;89.99;98288.34;4930057;29;20458;-78
2022/07/14 06:48:32;;;;;;;7.30;3.00;;;21.90;96.90;;;22.95;89.78;98282.78;4929834;29;20484;-78
2022/07/14 06:51:04;;;;;;;3.43;2.70;;;22.00;96.80;;;23.02;89.32;98290.53;4930112;29;20927;-77
2022/07/14 06:53:34;;;;;;;4.90;2.73;;;22.00;96.70;;;23.06;89.81;98286.28;4930053;29;20635;-77
2022/07/14 06:56:05;;;;;;;3.67;2.50;;;22.10;96.90;;;23.12;89.52;98295.91;4928951;29;20473;-77
2022/07/14 06:58:36;;;;;;;4.00;2.80;;;22.20;97.00;;;23.16;90.37;98291.66;4929072;29;20470;-77
2022/07/14 07:01:07;;;;;;;5.10;3.20;;;22.20;97.10;;;23.20;89.90;98297.28;4931690;29;20981;-77
2022/07/14 07:03:39;;;;;;;6.20;2.90;;;22.20;96.80;;;23.21;89.50;98289.03;4929557;29;20458;-77
2022/07/14 07:08:57;;;;;;;5.40;3.10;;;22.40;96.70;;;23.18;89.76;98294.88;4929025;29;20526;-77
2022/07/14 07:11:28;;;;;;;4.53;3.13;;;22.20;96.70;;;23.15;89.48;98297.28;4928097;29;20498;-78
2022/07/14 07:13:58;;;;;;;4.37;2.97;;;22.30;96.50;;;23.16;89.59;98291.66;4930098;29;20958;-77
2022/07/14 07:16:29;;;;;;;6.53;3.40;;;22.20;96.70;;;23.21;89.10;98289.03;4929907;29;20570;-77
2022/07/14 07:19:00;;;;;;;4.60;3.40;;;22.30;96.60;;;23.28;88.72;98294.09;4929689;29;20488;-77
2022/07/14 07:21:30;;;;;;;4.70;3.03;;;22.30;96.70;;;23.26;89.05;98289.03;4930883;29;20463;-78
2022/07/14 07:24:01;;;;;;;6.17;3.17;;;22.30;96.80;;;23.29;89.01;98293.81;4929526;29;20945;-77
2022/07/14 07:26:37;;;;;;;4.10;3.00;;;22.40;97.00;;;23.34;89.07;98298.38;4929532;29;20466;-78
2022/07/14 07:29:07;;;;;;;8.90;3.10;;;22.40;96.80;;;23.36;89.05;98302.41;4928771;29;20549;-77
2022/07/14 07:31:37;;;;;;;4.57;2.90;;;22.40;96.70;;;23.42;88.50;98295.25;4929250;29;21104;-77
2022/07/14 07:34:07;;;;;;;4.07;2.60;;;22.50;96.70;;;23.47;88.97;98293.38;4930357;29;20467;-78
2022/07/14 07:36:36;;;;;;;3.40;2.60;;;22.50;96.90;;;23.51;88.35;98290.97;4929834;29;20476;-78
2022/07/14 07:39:26;;;;;;;4.60;3.10;;;22.60;96.60;;;23.58;87.93;98285.38;4928320;28;20983;-77
2022/07/14 07:41:59;;;;;;;3.90;2.80;;;22.60;96.60;;;23.67;87.49;98275.81;4929864;29;20463;-78
2022/07/14 07:44:30;;;;;;;3.33;2.73;;;22.80;96.50;;;23.74;87.20;98276.34;4930350;29;20490;-78
2022/07/14 07:46:59;;;;;;;4.27;2.80;;;22.90;96.50;;;23.80;87.69;98264.59;4933434;29;20462;-77
2022/07/14 07:49:30;;;;;;;4.00;2.77;;;23.00;96.60;;;23.86;87.11;98274.19;4930983;29;20472;-78
2022/07/14 07:52:00;;;;;;;8.00;3.90;;;23.00;96.40;;;23.84;85.50;98276.34;4932197;29;20525;-77
2022/07/14 07:54:30;;;;;;;8.00;3.40;;;22.90;95.90;;;23.85;84.62;98275.25;4932831;29;20458;-77
2022/07/14 07:57:21;;;;;;;4.83;2.90;;;22.90;95.90;;;23.88;84.60;98272.84;4933693;29;20537;-77
2022/07/14 07:59:51;;;;;;;3.70;3.30;;;23.00;96.00;;;23.93;84.59;98274.75;4933268;29;20537;-77
2022/07/14 08:02:24;;;;;;;4.00;2.70;;;23.00;95.90;;;23.98;84.06;98274.75;4933492;29;20462;-77
2022/07/14 08:04:55;;;;;;;5.57;2.80;;;23.10;95.70;;;24.04;83.71;98262.97;4932709;29;20458;-78
2022/07/14 08:07:24;;;;;;;4.97;3.27;;;23.10;95.80;;;24.14;83.18;98265.69;4931050;29;20477;-78
2022/07/14 08:09:54;;;;;;;3.97;3.00;;;23.30;95.60;;;24.21;83.63;98266.22;4931616;29;20506;-78
2022/07/14 08:12:29;;;;;;;4.03;2.70;;;23.40;95.80;;;24.28;83.28;98266.72;4931185;29;20498;-77
2022/07/14 08:14:59;;;;;;;9.00;3.13;;;23.50;95.70;;;24.34;83.02;98260.31;4932034;29;20549;-77
2022/07/14 08:17:29;;;;;;;6.30;3.87;;;23.60;95.60;;;24.35;82.81;98269.13;4932891;29;20460;-78
2022/07/14 08:19:58;;;;;;;5.70;3.57;;;23.50;95.50;;;24.38;82.30;98271.25;4932098;29;20459;-77
2022/07/14 08:22:30;;;;;;;4.53;2.90;;;23.60;95.50;;;24.44;82.27;98257.59;4932488;29;20537;-77
2022/07/14 08:25:00;;;;;;;7.23;3.10;;;23.60;95.40;;;24.50;81.84;98258.41;4933407;29;20864;-78
2022/07/14 08:27:41;;;;;;;6.03;3.00;;;23.70;95.30;;;24.56;81.93;98257.31;4931237;29;21010;-78
2022/07/14 08:30:12;;;;;;;4.10;3.00;;;23.70;95.60;;;24.63;82.58;98249.81;4932252;29;21032;-77
2022/07/14 08:32:45;;;;;;;5.33;3.00;;;23.80;95.60;;;24.66;81.09;98251.13;4932324;29;20489;-78
2022/07/14 08:35:18;;;;;;;10.10;2.87;;;23.80;95.30;;;24.70;81.42;98250.31;4933150;29;20458;-77
2022/07/14 08:37:47;;;;;;;8.23;2.70;;;23.80;95.40;;;24.76;81.98;98253.75;4932830;29;20470;-77
2022/07/14 08:40:19;;;;;;;5.60;2.80;;;23.90;95.50;;;24.78;81.91;98254.31;4931465;29;20462;-78
2022/07/14 08:42:53;;;;;;;5.20;3.60;;;24.00;95.60;;;24.73;80.97;98255.13;4932635;29;20490;-77
2022/07/14 08:45:26;;;;;;;10.23;3.37;;;23.90;95.20;;;24.77;80.83;98255.38;4931317;29;20962;-77
2022/07/14 08:47:57;;;;;;;4.80;3.23;;;23.90;95.40;;;24.78;81.03;98259.66;4931304;29;20537;-77
2022/07/14 08:50:27;;;;;;;5.83;3.30;;;23.90;95.30;;;24.78;80.74;98259.66;4931028;29;20516;-78
2022/07/14 08:52:58;;;;;;;4.10;3.10;;;23.80;95.30;;;24.82;80.58;98261.50;4930792;29;20447;-78
2022/07/14 08:55:31;;;;;;;4.20;2.90;;;23.90;95.30;;;24.80;80.94;98257.50;4931357;29;20456;-77
2022/07/14 08:58:03;;;;;;;3.50;2.77;;;23.90;95.30;;;24.78;80.88;98255.09;4930049;29;20470;-78
2022/07/14 09:00:34;;;;;;;5.70;2.80;;;23.80;95.40;;;24.78;81.16;98254.31;4933324;29;20458;-77
2022/07/14 09:03:05;;;;;;;8.07;3.60;;;23.90;95.40;;;24.78;81.23;98254.31;4931526;29;20475;-77
2022/07/14 09:05:54;;;;;;;11.20;2.60;;;23.90;95.50;;;24.81;81.63;98253.75;4932113;29;21169;-78
2022/07/14 09:08:28;;;;;;;12.60;3.13;;;23.80;95.70;;;24.83;81.62;98251.63;4931882;29;20446;-78
2022/07/14 09:10:59;;;;;;;5.07;3.50;;;23.90;95.80;;;24.82;81.55;98250.00;4930865;29;20502;-77
2022/07/14 09:13:34;;;;;;;4.10;2.97;;;23.80;95.50;;;24.76;81.23;98248.41;4932579;29;20538;-78
2022/07/14 09:16:21;;;;;;;12.13;3.10;;;23.90;95.50;;;24.77;81.67;98242.81;4931270;29;20458;-77
2022/07/14 09:19:07;;;;;;;7.00;3.93;;;23.90;95.50;;;24.76;81.90;98237.72;4932423;29;21008;-77
2022/07/14 09:21:39;;;;;;;11.43;3.70;;;23.80;95.50;;;24.72;82.08;98242.00;4932421;29;20946;-77
2022/07/14 09:24:10;;;;;;;10.60;3.50;;;23.70;95.70;;;24.73;82.19;98236.38;4932325;29;20450;-78
2022/07/14 09:26:47;;;;;;;6.40;3.07;;;23.80;95.80;;;24.79;81.97;98237.16;4932595;29;20458;-77
2022/07/14 09:29:26;;;;;;;7.47;3.30;;;23.80;95.80;;;24.84;82.38;98237.19;4931509;29;20916;-77
2022/07/14 09:31:57;;;;;;;5.50;3.00;;;23.90;95.80;;;24.89;82.23;98243.31;4931377;29;20521;-78
2022/07/14 09:34:31;;;;;;;6.07;3.10;;;24.00;95.70;;;24.90;82.76;98234.22;4931241;29;20538;-79
2022/07/14 09:37:16;;;;;;;10.10;3.27;;;24.00;95.80;;;24.92;81.84;98220.56;4931669;29;20493;-78
2022/07/14 09:39:56;;;;;;;8.53;3.00;;;24.00;95.60;;;24.94;80.93;98224.56;4931803;29;21040;-77
2022/07/14 09:42:51;;;;;;;5.47;3.00;;;24.10;95.40;;;24.99;81.38;98221.06;4931575;29;20467;-78
2022/07/14 09:45:23;;;;;;;7.83;3.40;;;24.20;95.50;;;24.97;80.51;98223.19;4930244;29;20459;-78
2022/07/14 09:48:01;;;;;;;4.77;2.93;;;24.10;95.10;;;24.97;80.24;98218.66;4931348;29;20888;-78
2022/07/14 09:50:45;;;;;;;5.10;2.90;;;24.10;95.40;;;25.00;80.86;98226.13;4931466;29;20442;-78
2022/07/14 09:53:17;;;;;;;6.33;3.47;;;24.10;95.40;;;25.03;80.32;98214.88;4931588;29;20447;-78
2022/07/14 09:55:58;;;;;;;12.73;3.50;;;24.20;95.40;;;25.07;79.82;98208.97;4930387;29;20470;-78
2022/07/14 09:58:33;;;;;;;7.63;3.47;;;24.20;95.20;;;25.14;79.88;98210.25;4930578;28;20964;-78
2022/07/14 10:01:09;;;;;;;3.63;2.60;;;24.30;95.20;;;25.17;79.47;98209.69;4928747;29;20470;-77
2022/07/14 10:03:42;;;;;;;5.43;2.87;;;24.30;95.20;;;25.20;79.30;98197.66;4930249;29;20493;-78
2022/07/14 10:06:12;;;;;;;5.43;3.17;;;24.30;95.10;;;25.28;79.31;98199.72;4930289;29;21029;-77
2022/07/14 10:09:02;;;;;;;7.37;2.93;;;24.40;95.30;;;25.33;79.88;98197.03;4930759;29;20457;-78
2022/07/14 10:11:33;;;;;;;6.83;3.00;;;24.50;95.30;;;25.36;77.95;98189.25;4930113;29;20592;-77
2022/07/14 10:14:04;;;;;;;5.13;3.30;;;24.50;94.90;;;25.42;77.53;98185.44;4929230;29;20466;-78
2022/07/14 10:16:35;;;;;;;4.90;3.20;;;24.60;94.60;;;25.46;76.34;98181.13;4932492;29;20954;-78
2022/07/14 10:19:06;;;;;;;7.13;3.03;;;24.60;94.40;;;25.50;77.46;98174.16;4929427;29;21033;-77
2022/07/14 10:21:45;;;;;;;5.23;2.97;;;24.60;94.80;;;25.56;77.11;98174.13;4932417;29;20450;-78
2022/07/14 10:24:16;;;;;;;6.30;3.30;;;24.70;94.70;;;25.61;75.63;98177.56;4929920;29;21024;-77
2022/07/14 10:26:48;;;;;;;4.13;3.23;;;24.80;94.20;;;25.68;75.96;98171.88;4929854;29;20455;-77
2022/07/14 10:29:19;;;;;;;5.17;2.63;;;24.80;94.40;;;25.74;75.91;98166.19;4929813;29;20466;-77
2022/07/14 10:32:32;;;;;;;9.63;3.13;;;24.90;94.60;;;25.82;75.74;98168.28;4929341;29;20953;-77
2022/07/14 10:35:21;;;;;;;4.67;3.00;;;25.00;94.40;;;25.90;74.55;98167.63;4930977;28;20463;-77
2022/07/14 10:38:13;;;;;;;12.33;3.23;;;25.10;94.10;;;26.00;74.53;98161.38;4931070;29;20497;-77
2022/07/14 10:41:01;;;;;;;3.90;3.00;;;25.20;94.10;;;26.09;74.09;98157.00;4929721;29;20502;-78
2022/07/14 10:43:57;;;;;;;6.80;3.27;;;25.30;94.00;;;26.17;73.03;98155.59;4929036;29;20459;-78
2022/07/14 10:46:40;;;;;;;4.53;2.63;;;25.30;93.90;;;26.23;72.69;98147.22;4931184;29;20462;-77